createdAt,value
2023-01-18T00:03:33.640Z,96156.28
2023-01-18T00:06:20.875Z,96160.78
2023-01-18T00:09:08.074Z,96166.19
2023-01-18T00:11:55.169Z,96154.47
2023-01-18T00:14:42.275Z,96176.72
2023-01-18T00:17:29.361Z,96178.91
2023-01-18T00:20:17.021Z,96180.00
2023-01-18T00:23:04.633Z,96185.38
2023-01-18T00:25:51.761Z,96205.94
2023-01-18T00:28:40.166Z,96223.53
2023-01-18T00:31:27.351Z,96233.13
2023-01-18T00:34:14.431Z,96232.19
2023-01-18T00:37:01.445Z,96240.56
2023-01-18T00:39:48.531Z,96247.94
2023-01-18T00:42:54.840Z,96242.88
2023-01-18T00:45:43.072Z,96246.06
2023-01-18T00:48:30.265Z,96248.13
2023-01-18T00:51:23.248Z,96248.25
2023-01-18T00:54:10.354Z,96236.44
2023-01-18T00:56:57.425Z,96242.72
2023-01-18T00:59:46.741Z,96238.41
2023-01-18T01:02:35.477Z,96232.19
2023-01-18T01:05:44.049Z,96236.94
2023-01-18T01:08:31.140Z,96232.31
2023-01-18T01:11:18.250Z,96232.72
2023-01-18T01:14:24.314Z,96206.78
2023-01-18T01:17:29.863Z,96216.16
2023-01-18T01:20:35.637Z,96228.94
2023-01-18T01:23:43.229Z,96204.91
2023-01-18T01:26:30.302Z,96213.13
2023-01-18T01:29:17.761Z,96196.66
2023-01-18T01:32:06.061Z,96195.94
2023-01-18T01:34:53.141Z,96194.50
2023-01-18T01:37:40.248Z,96181.94
2023-01-18T01:40:27.451Z,96185.03
2023-01-18T01:43:14.552Z,96184.22
2023-01-18T01:46:02.829Z,96176.34
2023-01-18T01:48:59.353Z,96191.06
2023-01-18T01:51:51.103Z,96193.34
2023-01-18T01:54:50.266Z,96197.22
2023-01-18T01:57:59.213Z,96205.34
2023-01-18T02:00:46.424Z,96219.41
2023-01-18T02:03:33.509Z,96240.03
2023-01-18T02:06:32.733Z,96254.44
2023-01-18T02:09:23.414Z,96252.25
2023-01-18T02:12:10.520Z,96242.47
2023-01-18T02:14:59.374Z,96249.59
2023-01-18T02:17:54.402Z,96250.41
2023-01-18T02:21:08.684Z,96267.88
2023-01-18T02:24:28.089Z,96270.50
2023-01-18T02:27:22.532Z,96286.41
2023-01-18T02:30:14.733Z,96300.34
2023-01-18T02:33:10.911Z,96322.44
2023-01-18T02:36:04.002Z,96300.13
2023-01-18T02:38:56.146Z,96300.38
2023-01-18T02:42:07.421Z,96287.91
2023-01-18T02:45:12.992Z,96286.13
2023-01-18T02:48:01.024Z,96284.06
2023-01-18T02:50:48.543Z,96289.69
2023-01-18T02:53:41.458Z,96288.88
2023-01-18T02:56:44.012Z,96297.53
2023-01-18T02:59:41.480Z,96284.50
2023-01-18T03:02:28.732Z,96283.34
2023-01-18T03:05:16.954Z,96279.22
2023-01-18T03:08:11.251Z,96263.03
2023-01-18T03:11:04.922Z,96267.84
2023-01-18T03:14:01.793Z,96282.56
2023-01-18T03:16:58.116Z,96279.75
2023-01-18T03:20:05.954Z,96288.50
2023-01-18T03:23:24.756Z,96283.06
2023-01-18T03:26:16.546Z,96288.34
2023-01-18T03:29:24.233Z,96273.78
2023-01-18T03:32:33.944Z,96276.75
2023-01-18T03:35:27.300Z,96265.00
2023-01-18T03:38:16.584Z,96278.25
2023-01-18T03:41:05.315Z,96271.84
2023-01-18T03:43:55.004Z,96281.09
2023-01-18T03:46:43.964Z,96294.19
2023-01-18T03:49:33.419Z,96307.03
2023-01-18T03:52:40.788Z,96295.28
2023-01-18T03:55:56.729Z,96299.59
2023-01-18T03:58:45.783Z,96299.16
2023-01-18T04:01:33.065Z,96288.22
2023-01-18T04:04:20.253Z,96287.56
2023-01-18T04:07:07.432Z,96296.00
2023-01-18T04:09:54.567Z,96298.50
2023-01-18T04:12:41.705Z,96296.66
2023-01-18T04:15:28.791Z,96314.03
2023-01-18T04:18:16.047Z,96322.97
2023-01-18T04:21:03.106Z,96297.50
2023-01-18T04:23:50.282Z,96299.81
2023-01-18T04:26:38.028Z,96305.28
2023-01-18T04:29:25.189Z,96307.91
2023-01-18T04:32:12.290Z,96315.34
2023-01-18T04:34:59.304Z,96306.44
2023-01-18T04:37:52.465Z,96322.47
2023-01-18T04:40:39.609Z,96308.75
2023-01-18T04:43:26.701Z,96306.59
2023-01-18T04:46:15.470Z,96280.31
2023-01-18T04:49:02.608Z,96303.28
2023-01-18T04:51:49.686Z,96309.06
2023-01-18T04:54:36.909Z,96326.59
2023-01-18T04:57:23.996Z,96352.06
2023-01-18T05:00:15.880Z,96370.28
2023-01-18T05:03:02.974Z,96369.13
2023-01-18T05:05:50.041Z,96383.19
2023-01-18T05:08:41.126Z,96389.66
2023-01-18T05:11:28.304Z,96370.75
2023-01-18T05:14:15.337Z,96383.84
2023-01-18T05:17:02.596Z,96375.72
2023-01-18T05:19:49.733Z,96405.50
2023-01-18T05:22:37.393Z,96398.72
2023-01-18T05:25:24.615Z,96407.16
2023-01-18T05:28:11.850Z,96403.66
2023-01-18T05:30:58.947Z,96398.69
2023-01-18T05:33:45.993Z,96404.97
2023-01-18T05:36:33.128Z,96408.25
2023-01-18T05:39:20.180Z,96416.19
2023-01-18T05:42:07.452Z,96409.25
2023-01-18T05:44:54.557Z,96403.13
2023-01-18T05:47:41.811Z,96405.75
2023-01-18T05:50:28.871Z,96422.34
2023-01-18T05:53:19.216Z,96415.06
2023-01-18T05:56:07.972Z,96406.44
2023-01-18T05:58:55.098Z,96405.81
2023-01-18T06:01:42.688Z,96398.53
2023-01-18T06:04:29.808Z,96415.94
2023-01-18T06:07:17.180Z,96416.41
2023-01-18T06:10:05.118Z,96411.94
2023-01-18T06:12:52.230Z,96421.53
2023-01-18T06:15:39.544Z,96429.31
2023-01-18T06:18:29.995Z,96433.94
2023-01-18T06:21:18.095Z,96429.31
2023-01-18T06:24:06.556Z,96436.59
2023-01-18T06:26:54.656Z,96444.72
2023-01-18T06:32:52.301Z,96446.88
2023-01-18T06:35:39.784Z,96472.38
2023-01-18T06:38:27.032Z,96470.38
2023-01-18T06:41:15.416Z,96462.94
2023-01-18T06:44:02.466Z,96474.03
2023-01-18T06:46:49.508Z,96482.63
2023-01-18T06:49:36.551Z,96489.38
2023-01-18T06:52:25.891Z,96500.28
2023-01-18T06:55:14.564Z,96497.44
2023-01-18T06:58:02.789Z,96512.19
2023-01-18T07:00:50.042Z,96506.88
2023-01-18T07:03:43.211Z,96511.66
2023-01-18T07:06:30.425Z,96517.09
2023-01-18T07:09:17.551Z,96520.03
2023-01-18T07:12:04.960Z,96519.34
2023-01-18T07:14:52.045Z,96514.22
2023-01-18T07:17:39.138Z,96527.16
2023-01-18T07:20:26.212Z,96533.59
2023-01-18T07:23:13.242Z,96537.44
2023-01-18T07:26:12.629Z,96540.41
2023-01-18T07:29:00.177Z,96510.75
2023-01-18T07:31:47.390Z,96551.72
2023-01-18T07:34:34.561Z,96538.78
2023-01-18T07:37:21.591Z,96557.34
2023-01-18T07:40:10.720Z,96541.13
2023-01-18T07:42:58.651Z,96554.53
2023-01-18T07:45:53.982Z,96569.59
2023-01-18T07:48:41.085Z,96561.97
2023-01-18T07:51:28.283Z,96579.38
2023-01-18T07:54:17.320Z,96592.13
2023-01-18T07:57:04.398Z,96597.25
2023-01-18T07:59:51.868Z,96598.25
2023-01-18T08:02:39.172Z,96603.91
2023-01-18T08:05:27.859Z,96603.03
2023-01-18T08:08:17.008Z,96606.03
2023-01-18T08:11:06.443Z,96614.00
2023-01-18T08:13:53.588Z,96590.28
2023-01-18T08:16:40.657Z,96608.84
2023-01-18T08:19:27.759Z,96625.75
2023-01-18T08:22:14.840Z,96612.84
2023-01-18T08:25:02.546Z,96630.91
2023-01-18T08:27:49.723Z,96620.47
2023-01-18T08:30:42.876Z,96636.06
2023-01-18T08:33:30.039Z,96643.50
2023-01-18T08:36:23.633Z,96653.75
2023-01-18T08:39:12.956Z,96653.59
2023-01-18T08:41:59.997Z,96660.72
2023-01-18T08:44:48.694Z,96660.41
2023-01-18T08:47:36.117Z,96675.13
2023-01-18T08:50:23.470Z,96674.50
2023-01-18T08:53:10.677Z,96681.78
2023-01-18T08:55:58.284Z,96695.34
2023-01-18T08:58:45.429Z,96700.66
2023-01-18T09:01:32.658Z,96697.22
2023-01-18T09:04:19.768Z,96703.53
2023-01-18T09:07:06.877Z,96697.88
2023-01-18T09:09:53.972Z,96719.44
2023-01-18T09:12:41.071Z,96725.44
2023-01-18T09:15:29.407Z,96740.53
2023-01-18T09:18:16.443Z,96744.66
2023-01-18T09:21:08.941Z,96730.25
2023-01-18T09:23:56.036Z,96751.94
2023-01-18T09:26:45.243Z,96748.13
2023-01-18T09:29:32.500Z,96760.84
2023-01-18T09:32:21.293Z,96771.47
2023-01-18T09:35:08.794Z,96773.63
2023-01-18T09:37:57.043Z,96770.31
2023-01-18T09:40:45.473Z,96770.63
2023-01-18T09:43:39.814Z,96783.38
2023-01-18T09:46:28.257Z,96780.44
2023-01-18T09:49:46.203Z,96774.09
2023-01-18T09:52:33.176Z,96800.13
2023-01-18T09:55:36.910Z,96800.66
2023-01-18T09:59:21.006Z,96797.69
2023-01-18T10:02:19.929Z,96801.94
2023-01-18T10:05:11.054Z,96814.50
2023-01-18T10:08:13.553Z,96816.41
2023-01-18T10:11:09.983Z,96798.97
2023-01-18T10:14:15.392Z,96823.31
2023-01-18T10:17:11.788Z,96827.03
2023-01-18T10:20:00.837Z,96820.16
2023-01-18T10:23:15.742Z,96847.97
2023-01-18T10:26:09.371Z,96843.75
2023-01-18T10:29:12.574Z,96850.88
2023-01-18T10:32:12.785Z,96843.88
2023-01-18T10:35:00.571Z,96850.44
2023-01-18T10:37:47.758Z,96849.63
2023-01-18T10:40:37.766Z,96851.38
2023-01-18T10:43:27.244Z,96864.03
2023-01-18T10:46:17.164Z,96861.06
2023-01-18T10:49:04.596Z,96865.66
2023-01-18T10:51:51.756Z,96872.13
2023-01-18T10:54:40.483Z,96871.19
2023-01-18T10:57:35.014Z,96874.44
2023-01-18T11:00:35.367Z,96877.22
2023-01-18T11:03:23.443Z,96875.91
2023-01-18T11:06:11.215Z,96879.59
2023-01-18T11:08:58.248Z,96880.31
2023-01-18T11:12:03.635Z,96881.47
2023-01-18T11:14:50.712Z,96874.47
2023-01-18T11:17:37.778Z,96878.16
2023-01-18T11:20:30.189Z,96880.50
2023-01-18T11:23:35.797Z,96880.41
2023-01-18T11:26:24.154Z,96883.72
2023-01-18T11:29:14.995Z,96865.84
2023-01-18T11:32:09.700Z,96877.66
2023-01-18T11:35:00.336Z,96890.22
2023-01-18T11:37:49.031Z,96880.09
2023-01-18T11:40:36.252Z,96899.06
2023-01-18T11:43:28.020Z,96897.97
2023-01-18T11:46:30.302Z,96894.28
2023-01-18T11:49:26.390Z,96894.56
2023-01-18T11:52:24.144Z,96885.66
2023-01-18T11:55:23.785Z,96877.03
2023-01-18T11:58:30.220Z,96887.31
2023-01-18T12:01:46.073Z,96895.63
2023-01-18T12:05:10.707Z,96894.81
2023-01-18T12:07:59.422Z,96901.75
2023-01-18T12:11:11.328Z,96885.69
2023-01-18T12:14:06.195Z,96902.50
2023-01-18T12:17:14.545Z,96911.75
2023-01-18T12:20:27.465Z,96911.19
2023-01-18T12:23:49.300Z,96919.66
2023-01-18T12:27:29.829Z,96934.31
2023-01-18T12:30:28.942Z,96934.91
2023-01-18T12:33:42.548Z,96940.28
2023-01-18T12:37:01.888Z,96941.75
2023-01-18T12:40:10.608Z,96941.41
2023-01-18T12:43:11.799Z,96934.28
2023-01-18T12:46:07.599Z,96951.56
2023-01-18T12:49:22.108Z,96959.09
2023-01-18T12:52:18.865Z,96945.28
2023-01-18T12:55:08.401Z,96943.78
2023-01-18T12:58:01.419Z,96946.06
2023-01-18T13:01:02.713Z,96946.91
2023-01-18T13:03:54.121Z,96951.22
2023-01-18T13:06:42.929Z,96948.44
2023-01-18T13:09:37.187Z,96941.94
2023-01-18T13:12:25.755Z,96969.34
2023-01-18T13:15:21.974Z,96967.94
2023-01-18T13:18:37.486Z,96963.09
2023-01-18T13:21:57.032Z,96965.78
2023-01-18T13:25:09.214Z,96967.53
2023-01-18T13:28:05.812Z,96978.69
2023-01-18T13:31:02.194Z,96974.47
2023-01-18T13:33:57.599Z,96986.69
2023-01-18T13:36:46.678Z,96990.00
2023-01-18T13:39:44.905Z,96954.47
2023-01-18T13:42:38.346Z,96984.53
2023-01-18T13:45:29.095Z,96985.88
2023-01-18T13:48:41.653Z,96984.38
2023-01-18T13:51:40.908Z,96989.81
2023-01-18T13:54:28.700Z,96996.03
2023-01-18T13:57:19.079Z,96984.56
2023-01-18T14:00:07.636Z,96993.38
2023-01-18T14:03:06.360Z,96994.03
2023-01-18T14:05:57.299Z,96991.78
2023-01-18T14:09:07.364Z,96978.50
2023-01-18T14:11:57.131Z,96996.38
2023-01-18T14:14:54.675Z,96993.75
2023-01-18T14:17:57.740Z,96998.59
2023-01-18T14:20:51.996Z,96991.25
2023-01-18T14:24:02.534Z,96984.06
2023-01-18T14:26:53.911Z,96994.28
2023-01-18T14:29:49.664Z,97004.81
2023-01-18T14:32:47.337Z,96999.59
2023-01-18T14:38:21.939Z,97023.38
2023-01-18T14:41:24.506Z,97027.31
2023-01-18T14:44:48.684Z,97046.63
2023-01-18T14:47:45.053Z,97057.97
2023-01-18T14:50:36.571Z,97054.81
2023-01-18T14:53:27.164Z,97075.28
2023-01-18T14:56:16.952Z,97086.63
2023-01-18T14:59:24.582Z,97096.72
2023-01-18T15:02:19.184Z,97107.22
2023-01-18T15:05:21.059Z,97101.88
2023-01-18T15:08:10.482Z,97121.66
2023-01-18T15:10:58.481Z,97124.47
2023-01-18T15:13:50.467Z,97132.41
2023-01-18T15:16:37.880Z,97123.44
2023-01-18T15:19:33.557Z,97138.94
2023-01-18T15:22:24.481Z,97144.50
2023-01-18T15:25:24.500Z,97149.25
2023-01-18T15:28:23.306Z,97144.19
2023-01-18T15:31:16.544Z,97128.63
2023-01-18T15:34:03.901Z,97132.28
2023-01-18T15:36:51.411Z,97151.31
2023-01-18T15:39:58.268Z,97157.41
2023-01-18T15:42:50.196Z,97176.25
2023-01-18T15:45:40.706Z,97171.34
2023-01-18T15:48:34.183Z,97178.75
2023-01-18T15:51:22.951Z,97180.88
2023-01-18T15:54:18.446Z,97195.81
2023-01-18T15:57:18.110Z,97194.63
2023-01-18T16:00:06.070Z,97194.25
2023-01-18T16:02:53.588Z,97201.28
2023-01-18T16:05:40.673Z,97207.56
2023-01-18T16:08:27.842Z,97203.25
2023-01-18T16:11:33.718Z,97203.69
2023-01-18T16:14:33.406Z,97207.78
2023-01-18T16:17:23.089Z,97211.25
2023-01-18T16:20:16.924Z,97215.72
2023-01-18T16:23:18.100Z,97226.03
2023-01-18T16:26:05.975Z,97219.38
2023-01-18T16:28:53.675Z,97218.22
2023-01-18T16:31:43.983Z,97217.41
2023-01-18T16:34:31.083Z,97216.44
2023-01-18T16:37:18.795Z,97221.22
2023-01-18T16:40:06.796Z,97211.94
2023-01-18T16:43:03.941Z,97225.53
2023-01-18T16:45:54.924Z,97221.38
2023-01-18T16:48:42.409Z,97217.72
2023-01-18T16:51:33.662Z,97217.53
2023-01-18T16:54:21.045Z,97223.63
2023-01-18T16:57:18.713Z,97224.91
2023-01-18T17:00:21.290Z,97234.66
2023-01-18T17:03:08.421Z,97240.66
2023-01-18T17:05:56.117Z,97243.19
2023-01-18T17:08:44.112Z,97242.50
2023-01-18T17:11:31.327Z,97234.41
2023-01-18T17:14:19.806Z,97232.06
2023-01-18T17:17:11.224Z,97240.16
2023-01-18T17:19:59.131Z,97247.31
2023-01-18T17:22:46.631Z,97253.56
2023-01-18T17:25:37.401Z,97274.97
2023-01-18T17:28:26.807Z,97282.22
2023-01-18T17:31:14.680Z,97302.91
2023-01-18T17:34:02.428Z,97326.66
2023-01-18T17:36:49.652Z,97327.53
2023-01-18T17:39:49.651Z,97335.22
2023-01-18T17:42:38.662Z,97342.75
2023-01-18T17:45:27.653Z,97341.06
2023-01-18T17:48:15.422Z,97355.84
2023-01-18T17:51:10.253Z,97352.38
2023-01-18T17:54:00.698Z,97357.25
2023-01-18T17:56:48.304Z,97349.16
2023-01-18T17:59:37.065Z,97358.63
2023-01-18T18:02:25.867Z,97375.63
2023-01-18T18:05:13.575Z,97371.06
2023-01-18T18:08:01.594Z,97375.78
2023-01-18T18:10:49.784Z,97381.94
2023-01-18T18:13:38.283Z,97368.47
2023-01-18T18:16:26.517Z,97374.09
2023-01-18T18:19:15.321Z,97367.44
2023-01-18T18:22:04.891Z,97349.91
2023-01-18T18:24:55.522Z,97372.44
2023-01-18T18:27:47.048Z,97373.84
2023-01-18T18:30:35.227Z,97383.41
2023-01-18T18:33:23.534Z,97391.34
2023-01-18T18:36:11.711Z,97376.63
2023-01-18T18:39:06.965Z,97386.81
2023-01-18T18:41:55.067Z,97397.06
2023-01-18T18:44:42.929Z,97397.69
2023-01-18T18:47:30.831Z,97393.78
2023-01-18T18:50:19.175Z,97394.63
2023-01-18T18:53:06.683Z,97398.00
2023-01-18T18:56:00.737Z,97415.81
2023-01-18T18:58:51.693Z,97422.47
2023-01-18T19:01:40.178Z,97417.34
2023-01-18T19:04:28.458Z,97425.16
2023-01-18T19:07:18.833Z,97432.81
2023-01-18T19:10:07.582Z,97424.03
2023-01-18T19:12:55.951Z,97412.19
2023-01-18T19:15:51.851Z,97423.06
2023-01-18T19:18:41.299Z,97429.47
2023-01-18T19:21:29.393Z,97428.78
2023-01-18T19:24:18.415Z,97447.19
2023-01-18T19:27:06.661Z,97452.03
2023-01-18T19:29:56.163Z,97441.13
2023-01-18T19:32:43.936Z,97439.31
2023-01-18T19:35:32.135Z,97460.81
2023-01-18T19:38:20.274Z,97457.19
2023-01-18T19:41:11.727Z,97480.03
2023-01-18T19:43:59.468Z,97489.25
2023-01-18T19:46:47.488Z,97487.56
2023-01-18T19:49:35.455Z,97505.44
2023-01-18T19:52:24.009Z,97504.19
2023-01-18T19:55:11.412Z,97505.03
2023-01-18T19:58:01.556Z,97509.91
2023-01-18T20:00:49.740Z,97513.50
2023-01-18T20:03:37.663Z,97519.19
2023-01-18T20:06:25.711Z,97540.53
2023-01-18T20:09:19.902Z,97530.09
2023-01-18T20:12:10.360Z,97548.66
2023-01-18T20:15:00.693Z,97545.59
2023-01-18T20:17:48.518Z,97543.34
2023-01-18T20:20:37.641Z,97560.94
2023-01-18T20:23:25.644Z,97557.03
2023-01-18T20:26:20.035Z,97564.97
2023-01-18T20:29:14.580Z,97579.78
2023-01-18T20:32:15.184Z,97546.72
2023-01-18T20:35:04.004Z,97576.19
2023-01-18T20:37:53.792Z,97582.41
2023-01-18T20:40:41.741Z,97591.34
2023-01-18T20:43:30.650Z,97583.72
2023-01-18T20:46:18.289Z,97594.44
2023-01-18T20:49:06.040Z,97608.38
2023-01-18T20:51:53.778Z,97618.88
2023-01-18T20:54:42.092Z,97610.47
2023-01-18T20:57:33.130Z,97610.59
2023-01-18T21:00:21.221Z,97606.41
2023-01-18T21:03:10.770Z,97622.31
2023-01-18T21:05:58.094Z,97638.78
2023-01-18T21:08:46.613Z,97617.59
2023-01-18T21:11:33.756Z,97633.63
2023-01-18T21:14:21.515Z,97634.03
2023-01-18T21:17:09.461Z,97649.34
2023-01-18T21:19:56.830Z,97627.84
2023-01-18T21:22:44.320Z,97645.53
2023-01-18T21:25:31.464Z,97652.66
2023-01-18T21:28:19.772Z,97657.97
2023-01-18T21:31:07.842Z,97652.66
2023-01-18T21:33:55.192Z,97656.28
2023-01-18T21:36:42.238Z,97665.06
2023-01-18T21:39:29.385Z,97662.84
2023-01-18T21:42:34.925Z,97666.72
2023-01-18T21:45:40.661Z,97665.44
2023-01-18T21:48:30.326Z,97680.66
2023-01-18T21:51:36.050Z,97682.88
2023-01-18T21:54:23.344Z,97682.97
2023-01-18T21:57:10.438Z,97679.66
2023-01-18T21:59:57.567Z,97679.25
2023-01-18T22:02:44.634Z,97692.50
2023-01-18T22:05:31.864Z,97718.72
2023-01-18T22:08:18.946Z,97725.25
2023-01-18T22:11:06.083Z,97713.38
2023-01-18T22:13:53.230Z,97721.06
2023-01-18T22:16:40.547Z,97740.16
2023-01-18T22:19:27.643Z,97756.97
2023-01-18T22:22:15.227Z,97758.31
2023-01-18T22:25:02.432Z,97758.19
2023-01-18T22:27:49.680Z,97754.44
2023-01-18T22:30:36.772Z,97759.22
2023-01-18T22:33:23.975Z,97751.31
2023-01-18T22:39:14.025Z,97780.72
2023-01-18T22:42:01.147Z,97770.91
2023-01-18T22:44:48.231Z,97765.81
2023-01-18T22:47:35.273Z,97768.59
2023-01-18T22:50:22.410Z,97776.66
2023-01-18T22:53:09.543Z,97772.72
2023-01-18T22:56:02.994Z,97778.22
2023-01-18T22:58:50.645Z,97785.75
2023-01-18T23:01:37.679Z,97790.09
2023-01-18T23:04:24.901Z,97792.03
2023-01-18T23:07:14.297Z,97800.44
2023-01-18T23:10:01.498Z,97787.69
2023-01-18T23:12:48.574Z,97808.72
2023-01-18T23:15:54.235Z,97806.88
2023-01-18T23:18:41.447Z,97820.41
2023-01-18T23:21:28.479Z,97821.66
2023-01-18T23:24:15.805Z,97836.81
2023-01-18T23:27:04.591Z,97826.00
2023-01-18T23:29:57.321Z,97823.81
2023-01-18T23:32:44.689Z,97812.31
2023-01-18T23:35:31.764Z,97817.41
2023-01-18T23:38:18.824Z,97824.91
2023-01-18T23:41:24.791Z,97830.53
2023-01-18T23:44:30.615Z,97839.34
2023-01-18T23:47:36.204Z,97846.91
2023-01-18T23:50:42.288Z,97841.16
2023-01-18T23:53:47.880Z,97837.63
2023-01-18T23:56:35.180Z,97842.66
2023-01-18T23:59:22.356Z,97836.03
